createdAt,value
2019-04-27T00:00:49.028Z,75.45
2019-04-27T00:04:57.287Z,76.04
2019-04-27T00:09:03.497Z,76.43
2019-04-27T00:13:07.505Z,76.06
2019-04-27T00:17:41.313Z,76.34
2019-04-27T00:21:40.790Z,76.50
2019-04-27T00:25:44.279Z,76.37
2019-04-27T00:29:48.138Z,76.73
2019-04-27T00:33:53.441Z,76.60
2019-04-27T00:38:15.095Z,76.41
2019-04-27T00:42:18.649Z,76.54
2019-04-27T00:46:22.895Z,76.11
2019-04-27T00:50:26.694Z,76.46
2019-04-27T00:54:30.193Z,75.78
2019-04-27T00:58:38.415Z,75.95
2019-04-27T01:02:43.890Z,75.84
2019-04-27T01:06:47.566Z,75.76
2019-04-27T01:10:51.396Z,75.69
2019-04-27T01:14:54.885Z,75.95
2019-04-27T01:18:58.956Z,76.11
2019-04-27T01:23:02.507Z,75.80
2019-04-27T01:27:18.820Z,75.44
2019-04-27T01:31:23.391Z,75.52
2019-04-27T01:35:26.887Z,76.00
2019-04-27T01:39:30.655Z,76.66
2019-04-27T01:43:34.141Z,76.53
2019-04-27T01:47:39.159Z,76.46
2019-04-27T01:51:42.861Z,76.17
2019-04-27T01:55:46.351Z,76.36
2019-04-27T01:59:50.279Z,76.91
2019-04-27T02:03:55.397Z,76.42
2019-04-27T02:07:59.373Z,76.65
2019-04-27T02:12:03.117Z,76.95
2019-04-27T02:16:08.907Z,76.50
2019-04-27T02:20:12.734Z,76.50
2019-04-27T02:24:16.203Z,76.20
2019-04-27T02:28:27.392Z,76.32
2019-04-27T02:32:32.893Z,76.23
2019-04-27T02:36:39.010Z,76.32
2019-04-27T02:40:51.505Z,76.48
2019-04-27T02:44:55.227Z,76.77
2019-04-27T02:49:03.179Z,76.39
2019-04-27T02:53:03.935Z,76.51
2019-04-27T02:57:09.888Z,76.47
2019-04-27T03:01:12.808Z,76.62
2019-04-27T03:05:22.116Z,76.67
2019-04-27T03:09:25.622Z,76.81
2019-04-27T03:13:33.285Z,76.75
2019-04-27T03:17:54.429Z,76.83
2019-04-27T03:22:05.377Z,76.57
2019-04-27T03:26:16.377Z,76.74
2019-04-27T03:30:22.607Z,77.08
2019-04-27T03:34:25.198Z,77.18
2019-04-27T03:38:30.145Z,76.67
2019-04-27T03:42:37.347Z,76.98
2019-04-27T03:46:40.159Z,77.14
2019-04-27T03:50:50.418Z,77.13
2019-04-27T03:55:10.469Z,76.81
2019-04-27T03:59:15.630Z,76.87
2019-04-27T04:03:20.295Z,76.68
2019-04-27T04:07:24.433Z,77.10
2019-04-27T04:11:35.905Z,76.81
2019-04-27T04:15:46.857Z,76.63
2019-04-27T04:19:57.561Z,76.51
2019-04-27T04:23:55.641Z,76.38
2019-04-27T04:28:00.594Z,76.36
2019-04-27T04:32:04.453Z,76.57
2019-04-27T04:36:10.109Z,76.69
2019-04-27T04:40:13.314Z,76.24
2019-04-27T04:44:34.716Z,76.47
2019-04-27T04:48:40.447Z,76.48
2019-04-27T04:52:43.984Z,74.94
2019-04-27T04:56:49.390Z,74.57
2019-04-27T05:00:52.691Z,74.88
2019-04-27T05:04:56.202Z,74.82
2019-04-27T05:09:00.143Z,74.90
2019-04-27T05:13:03.646Z,74.88
2019-04-27T05:17:07.177Z,75.49
2019-04-27T05:21:18.564Z,75.67
2019-04-27T05:25:22.448Z,73.97
2019-04-27T05:29:26.101Z,73.97
2019-04-27T05:33:29.598Z,73.22
2019-04-27T05:37:33.111Z,73.02
2019-04-27T05:41:37.397Z,73.51
2019-04-27T05:46:01.341Z,73.46
2019-04-27T05:50:09.075Z,73.93
2019-04-27T05:54:12.992Z,74.52
2019-04-27T05:58:16.495Z,73.25
2019-04-27T06:02:20.359Z,73.03
2019-04-27T06:06:25.551Z,71.39
2019-04-27T06:10:32.033Z,71.12
2019-04-27T06:14:35.627Z,68.15
2019-04-27T06:18:39.523Z,64.68
2019-04-27T06:22:43.778Z,65.16
2019-04-27T06:26:47.272Z,63.90
2019-04-27T06:30:51.150Z,61.23
2019-04-27T06:34:54.646Z,59.29
2019-04-27T06:38:58.948Z,61.22
2019-04-27T06:43:02.907Z,61.27
2019-04-27T06:47:06.458Z,60.54
2019-04-27T06:51:10.016Z,60.61
2019-04-27T06:55:14.039Z,58.02
2019-04-27T06:59:18.633Z,55.38
2019-04-27T07:03:22.277Z,54.47
2019-04-27T07:07:25.785Z,52.82
2019-04-27T07:11:29.702Z,51.13
2019-04-27T07:15:33.438Z,52.57
2019-04-27T07:19:37.274Z,55.33
2019-04-27T07:23:48.839Z,55.62
2019-04-27T07:27:52.689Z,51.65
2019-04-27T07:31:56.191Z,47.57
2019-04-27T07:35:59.693Z,40.46
2019-04-27T07:40:03.608Z,36.97
2019-04-27T07:44:15.146Z,34.88
2019-04-27T07:48:18.900Z,33.54
2019-04-27T07:52:22.406Z,32.69
2019-04-27T07:56:25.900Z,33.33
2019-04-27T08:00:29.482Z,30.84
2019-04-27T08:04:32.994Z,30.95
2019-04-27T08:08:36.461Z,29.78
2019-04-27T08:12:39.958Z,29.93
2019-04-27T08:16:43.475Z,29.36
2019-04-27T08:20:46.950Z,28.60
2019-04-27T08:24:50.645Z,28.18
2019-04-27T08:29:08.604Z,29.74
2019-04-27T08:33:13.759Z,26.98
2019-04-27T08:37:18.798Z,27.11
2019-04-27T08:41:22.426Z,27.12
2019-04-27T08:45:25.915Z,27.53
2019-04-27T08:49:29.404Z,27.69
2019-04-27T08:53:32.906Z,27.48
2019-04-27T08:57:36.405Z,26.39
2019-04-27T09:01:39.946Z,25.50
2019-04-27T09:05:43.432Z,24.65
2019-04-27T09:09:49.815Z,25.32
2019-04-27T09:13:54.994Z,24.73
2019-04-27T09:17:59.809Z,24.49
2019-04-27T09:22:16.149Z,22.01
2019-04-27T09:26:14.812Z,24.95
2019-04-27T09:30:19.191Z,24.34
2019-04-27T09:34:22.650Z,28.51
2019-04-27T09:38:26.568Z,25.35
2019-04-27T09:42:30.462Z,27.45
2019-04-27T09:46:36.383Z,26.35
2019-04-27T09:50:40.354Z,26.82
2019-04-27T09:54:43.938Z,27.58
2019-04-27T09:58:47.394Z,29.38
2019-04-27T10:02:50.883Z,28.74
2019-04-27T10:06:54.374Z,31.24
2019-04-27T10:10:57.877Z,33.86
2019-04-27T10:15:01.360Z,31.30
2019-04-27T10:19:05.019Z,29.02
2019-04-27T10:23:08.514Z,25.70
2019-04-27T10:27:12.053Z,26.69
2019-04-27T10:31:15.884Z,29.28
2019-04-27T10:35:19.797Z,31.20
2019-04-27T10:39:23.286Z,32.01
2019-04-27T10:43:26.779Z,33.27
2019-04-27T10:47:30.648Z,35.46
2019-04-27T10:51:36.327Z,36.38
2019-04-27T10:55:39.848Z,35.52
2019-04-27T10:59:43.656Z,33.37
2019-04-27T11:03:57.554Z,29.67
2019-04-27T11:08:01.206Z,28.67
2019-04-27T11:12:06.759Z,31.33
2019-04-27T11:16:10.688Z,32.97
2019-04-27T11:20:15.097Z,35.81
2019-04-27T11:24:18.589Z,36.99
2019-04-27T11:28:22.081Z,36.90
2019-04-27T11:32:25.871Z,36.79
2019-04-27T11:36:30.983Z,38.25
2019-04-27T11:40:34.462Z,37.02
2019-04-27T11:44:37.954Z,40.25
2019-04-27T11:48:43.192Z,38.98
2019-04-27T11:52:47.470Z,38.88
2019-04-27T11:56:50.957Z,40.66
2019-04-27T12:00:55.950Z,40.73
2019-04-27T12:05:07.647Z,39.45
2019-04-27T12:09:11.402Z,39.09
2019-04-27T12:13:18.142Z,39.52
2019-04-27T12:17:21.623Z,39.99
2019-04-27T12:21:25.524Z,41.23
2019-04-27T12:25:31.818Z,43.29
2019-04-27T12:29:53.749Z,46.90
2019-04-27T12:33:59.028Z,46.61
2019-04-27T12:38:02.691Z,43.12
2019-04-27T12:42:06.189Z,41.02
2019-04-27T12:46:09.670Z,38.49
2019-04-27T12:50:14.517Z,38.06
2019-04-27T12:54:19.679Z,35.16
2019-04-27T12:58:27.220Z,38.72
2019-04-27T13:02:36.457Z,36.70
2019-04-27T13:06:40.031Z,35.49
2019-04-27T13:10:45.160Z,35.89
2019-04-27T13:14:48.645Z,32.65
2019-04-27T13:18:52.131Z,35.10
2019-04-27T13:22:55.621Z,34.67
2019-04-27T13:26:59.103Z,36.53
2019-04-27T13:31:02.605Z,35.70
2019-04-27T13:35:07.981Z,36.32
2019-04-27T13:39:11.555Z,36.83
2019-04-27T13:43:16.793Z,35.48
2019-04-27T13:47:21.914Z,35.90
2019-04-27T13:51:32.791Z,40.83
2019-04-27T13:55:36.286Z,43.57
2019-04-27T13:59:41.704Z,45.36
2019-04-27T14:03:46.954Z,45.54
2019-04-27T14:07:50.791Z,45.80
2019-04-27T14:11:57.624Z,45.29
2019-04-27T14:16:01.234Z,45.88
2019-04-27T14:20:05.619Z,45.51
2019-04-27T14:24:09.922Z,45.47
2019-04-27T14:28:13.787Z,45.95
2019-04-27T14:32:18.768Z,45.50
2019-04-27T14:36:22.384Z,45.93
2019-04-27T14:40:28.737Z,45.70
2019-04-27T14:44:32.381Z,45.76
2019-04-27T14:48:35.854Z,46.72
2019-04-27T14:52:40.894Z,47.53
2019-04-27T14:56:44.918Z,47.83
2019-04-27T15:00:49.867Z,48.39
2019-04-27T15:04:53.808Z,48.80
2019-04-27T15:08:57.242Z,49.08
2019-04-27T15:13:01.538Z,48.85
2019-04-27T15:17:06.884Z,49.52
2019-04-27T15:21:10.672Z,49.03
2019-04-27T15:25:15.710Z,48.88
2019-04-27T15:29:25.362Z,49.99
2019-04-27T15:33:46.821Z,52.59
2019-04-27T15:37:50.959Z,54.15
2019-04-27T15:42:07.976Z,55.32
2019-04-27T15:46:08.301Z,53.84
2019-04-27T15:50:12.176Z,53.68
2019-04-27T15:54:15.664Z,53.89
2019-04-27T15:58:24.855Z,54.37
2019-04-27T16:02:24.825Z,53.52
2019-04-27T16:06:28.319Z,53.69
2019-04-27T16:10:32.698Z,53.93
2019-04-27T16:14:40.885Z,54.42
2019-04-27T16:18:42.623Z,54.72
2019-04-27T16:22:46.181Z,54.30
2019-04-27T16:26:52.226Z,53.42
2019-04-27T16:30:55.554Z,54.00
2019-04-27T16:34:59.314Z,52.00
2019-04-27T16:39:08.178Z,52.96
2019-04-27T16:43:09.681Z,53.36
2019-04-27T16:47:18.775Z,53.19
2019-04-27T16:51:18.842Z,54.21
2019-04-27T16:55:22.352Z,54.04
2019-04-27T16:59:40.903Z,54.69
2019-04-27T17:03:31.573Z,54.72
2019-04-27T17:07:37.622Z,56.48
2019-04-27T17:11:43.608Z,57.51
2019-04-27T17:15:55.060Z,58.19
2019-04-27T17:20:01.327Z,59.94
2019-04-27T17:24:05.130Z,60.85
2019-04-27T17:28:12.854Z,61.09
2019-04-27T17:32:20.700Z,61.17
2019-04-27T17:36:24.192Z,60.84
2019-04-27T17:40:29.823Z,60.64
2019-04-27T17:44:32.887Z,60.31
2019-04-27T17:48:37.962Z,61.50
2019-04-27T17:52:41.712Z,61.43
2019-04-27T17:56:49.564Z,61.76
2019-04-27T18:00:50.706Z,62.57
2019-04-27T18:04:54.184Z,65.84
2019-04-27T18:09:00.523Z,65.78
2019-04-27T18:13:02.897Z,67.34
2019-04-27T18:17:10.348Z,67.42
2019-04-27T18:21:12.719Z,68.23
2019-04-27T18:25:18.697Z,69.61
2019-04-27T18:29:27.051Z,70.53
2019-04-27T18:33:32.547Z,70.16
2019-04-27T18:37:34.588Z,70.65
2019-04-27T18:41:44.474Z,71.01
2019-04-27T18:45:44.895Z,72.06
2019-04-27T18:50:07.458Z,71.75
2019-04-27T18:54:03.543Z,72.87
2019-04-27T18:58:06.963Z,73.25
2019-04-27T19:02:10.460Z,73.97
2019-04-27T19:06:13.956Z,73.76
2019-04-27T19:10:19.242Z,73.82
2019-04-27T19:14:22.824Z,72.67
2019-04-27T19:18:26.323Z,72.49
2019-04-27T19:22:30.013Z,72.26
2019-04-27T19:26:50.732Z,72.72
2019-04-27T19:31:10.696Z,72.02
2019-04-27T19:35:14.202Z,72.80
2019-04-27T19:39:18.203Z,73.42
2019-04-27T19:43:22.275Z,73.55
2019-04-27T19:47:25.765Z,72.73
2019-04-27T19:51:29.237Z,73.65
2019-04-27T19:55:32.745Z,73.75
2019-04-27T19:59:38.133Z,72.65
2019-04-27T20:03:43.381Z,72.87
2019-04-27T20:07:48.239Z,73.10
2019-04-27T20:11:51.971Z,72.87
2019-04-27T20:16:01.305Z,73.36
2019-04-27T20:20:07.175Z,72.88
2019-04-27T20:24:11.818Z,72.98
2019-04-27T20:28:15.692Z,72.21
2019-04-27T20:32:21.368Z,71.92
2019-04-27T20:36:24.548Z,71.49
2019-04-27T20:40:28.034Z,70.68
2019-04-27T20:44:31.535Z,72.01
2019-04-27T20:48:35.024Z,71.05
2019-04-27T20:52:43.177Z,70.58
2019-04-27T20:56:46.648Z,72.19
2019-04-27T21:00:51.792Z,71.81
2019-04-27T21:04:57.287Z,71.78
2019-04-27T21:09:02.858Z,72.58
2019-04-27T21:13:06.220Z,71.57
2019-04-27T21:17:11.712Z,72.15
2019-04-27T21:21:15.272Z,72.62
2019-04-27T21:25:19.014Z,73.52
2019-04-27T21:29:22.694Z,73.85
2019-04-27T21:33:26.205Z,73.72
2019-04-27T21:37:30.745Z,73.97
2019-04-27T21:41:34.535Z,73.64
2019-04-27T21:45:38.324Z,73.80
2019-04-27T21:49:41.917Z,74.30
2019-04-27T21:54:02.419Z,75.33
2019-04-27T21:58:05.892Z,74.34
2019-04-27T22:02:12.094Z,74.95
2019-04-27T22:06:15.974Z,74.70
2019-04-27T22:10:20.921Z,74.33
2019-04-27T22:14:24.429Z,74.72
2019-04-27T22:18:27.904Z,74.50
2019-04-27T22:22:35.751Z,75.03
2019-04-27T22:26:39.346Z,75.32
2019-04-27T22:30:43.706Z,74.08
2019-04-27T22:34:47.209Z,74.14
2019-04-27T22:38:51.634Z,75.60
2019-04-27T22:43:15.292Z,74.31
2019-04-27T22:47:19.151Z,74.31
2019-04-27T22:51:22.641Z,74.61
2019-04-27T22:55:26.261Z,74.15
2019-04-27T22:59:37.561Z,74.62
2019-04-27T23:03:42.674Z,73.74
2019-04-27T23:07:46.157Z,73.91
2019-04-27T23:11:51.535Z,74.04
2019-04-27T23:15:56.705Z,74.46
2019-04-27T23:20:01.345Z,75.38
2019-04-27T23:24:05.083Z,74.34
2019-04-27T23:28:10.188Z,74.56
2019-04-27T23:32:15.373Z,74.12
2019-04-27T23:36:18.864Z,74.89
2019-04-27T23:40:22.616Z,74.13
2019-04-27T23:44:26.090Z,74.21
2019-04-27T23:48:29.562Z,75.30
2019-04-27T23:52:52.506Z,74.60
2019-04-27T23:56:56.202Z,74.39
